Terminal Aerodrome Forecast
Issued by NWS

Home | Current Version | Previous Version | Text Only | Print | Product List | Glossary On
Versions: 1 2 3 4 5 6 7 8 9 10 11 12 13 14 15 16 17 18 19 20 21
000
FTUS43 KSGF 202300
TAFJLN
TAF
KJLN 202327Z 2100/2124 21007KT P6SM FEW060 OVC150
     FM210100 17007KT P6SM SCT060 OVC120
     FM210500 17007KT 5SM -SHRA BR FEW030 OVC060
     FM210800 17007KT 5SM -SHRA BR BKN025 OVC040
      TEMPO 2108/2112 3SM SHRA BR SCT015 OVC025
     FM211200 20009KT 4SM -SHRA BR SCT015 OVC025
     FM211700 24010KT 5SM -SHRA BR SCT015 OVC030
     FM212000 28010KT P6SM -SHRA BKN040 OVC120=

USA.gov is the U.S. government's official web portal to all federal, state and local government web resources and services.